sensor_id;sensor_type;location;lat;lon;timestamp;P1;durP1;ratioP1;P2;durP2;ratioP2
19278;SDS011;9773;47.062;15.446;2023-02-28T00:00:30;4.30;;;3.67;;
19278;SDS011;9773;47.062;15.446;2023-02-28T00:02:56;4.00;;;3.30;;
19278;SDS011;9773;47.062;15.446;2023-02-28T00:05:24;3.60;;;3.30;;
19278;SDS011;9773;47.062;15.446;2023-02-28T00:07:51;4.07;;;3.77;;
19278;SDS011;9773;47.062;15.446;2023-02-28T00:10:27;3.57;;;3.27;;
19278;SDS011;9773;47.062;15.446;2023-02-28T00:12:55;4.00;;;3.67;;
19278;SDS011;9773;47.062;15.446;2023-02-28T00:15:24;3.67;;;3.37;;
19278;SDS011;9773;47.062;15.446;2023-02-28T00:17:50;4.40;;;3.90;;
19278;SDS011;9773;47.062;15.446;2023-02-28T00:20:17;4.97;;;3.93;;
19278;SDS011;9773;47.062;15.446;2023-02-28T00:22:46;5.03;;;3.70;;
19278;SDS011;9773;47.062;15.446;2023-02-28T00:25:15;4.73;;;3.87;;
19278;SDS011;9773;47.062;15.446;2023-02-28T00:27:45;4.00;;;3.70;;
19278;SDS011;9773;47.062;15.446;2023-02-28T00:30:13;4.03;;;3.67;;
19278;SDS011;9773;47.062;15.446;2023-02-28T00:32:41;3.47;;;3.17;;
19278;SDS011;9773;47.062;15.446;2023-02-28T00:35:07;5.40;;;4.00;;
19278;SDS011;9773;47.062;15.446;2023-02-28T00:37:33;3.73;;;3.43;;
19278;SDS011;9773;47.062;15.446;2023-02-28T00:40:00;3.83;;;3.50;;
19278;SDS011;9773;47.062;15.446;2023-02-28T00:42:26;3.77;;;3.47;;
19278;SDS011;9773;47.062;15.446;2023-02-28T00:44:52;4.00;;;3.60;;
19278;SDS011;9773;47.062;15.446;2023-02-28T00:47:19;3.97;;;3.53;;
19278;SDS011;9773;47.062;15.446;2023-02-28T00:49:45;3.70;;;3.40;;
19278;SDS011;9773;47.062;15.446;2023-02-28T00:52:11;4.77;;;3.70;;
19278;SDS011;9773;47.062;15.446;2023-02-28T00:54:36;3.93;;;3.63;;
19278;SDS011;9773;47.062;15.446;2023-02-28T00:57:02;3.97;;;3.57;;
19278;SDS011;9773;47.062;15.446;2023-02-28T00:59:28;3.57;;;3.27;;
19278;SDS011;9773;47.062;15.446;2023-02-28T01:01:54;8.50;;;3.70;;
19278;SDS011;9773;47.062;15.446;2023-02-28T01:04:19;4.63;;;4.00;;
19278;SDS011;9773;47.062;15.446;2023-02-28T01:06:45;4.03;;;3.70;;
19278;SDS011;9773;47.062;15.446;2023-02-28T01:09:11;3.67;;;3.47;;
19278;SDS011;9773;47.062;15.446;2023-02-28T01:11:37;4.10;;;3.80;;
19278;SDS011;9773;47.062;15.446;2023-02-28T01:14:04;3.63;;;3.33;;
19278;SDS011;9773;47.062;15.446;2023-02-28T01:16:30;4.33;;;3.80;;
19278;SDS011;9773;47.062;15.446;2023-02-28T01:18:56;4.73;;;3.80;;
19278;SDS011;9773;47.062;15.446;2023-02-28T01:21:22;3.90;;;3.70;;
19278;SDS011;9773;47.062;15.446;2023-02-28T01:23:48;4.30;;;3.90;;
19278;SDS011;9773;47.062;15.446;2023-02-28T01:26:18;4.77;;;3.70;;
19278;SDS011;9773;47.062;15.446;2023-02-28T01:28:47;4.43;;;3.50;;
19278;SDS011;9773;47.062;15.446;2023-02-28T01:31:13;5.97;;;3.80;;
19278;SDS011;9773;47.062;15.446;2023-02-28T01:33:39;3.93;;;3.63;;
19278;SDS011;9773;47.062;15.446;2023-02-28T01:36:08;3.77;;;3.53;;
19278;SDS011;9773;47.062;15.446;2023-02-28T01:38:42;3.30;;;3.10;;
19278;SDS011;9773;47.062;15.446;2023-02-28T01:41:09;4.17;;;3.87;;
19278;SDS011;9773;47.062;15.446;2023-02-28T01:46:10;3.70;;;3.40;;
19278;SDS011;9773;47.062;15.446;2023-02-28T01:48:38;3.97;;;3.67;;
19278;SDS011;9773;47.062;15.446;2023-02-28T01:51:14;3.80;;;3.50;;
19278;SDS011;9773;47.062;15.446;2023-02-28T01:53:44;5.47;;;4.10;;
19278;SDS011;9773;47.062;15.446;2023-02-28T01:56:15;3.93;;;3.63;;
19278;SDS011;9773;47.062;15.446;2023-02-28T01:58:50;4.57;;;3.90;;
19278;SDS011;9773;47.062;15.446;2023-02-28T02:01:16;3.80;;;3.50;;
19278;SDS011;9773;47.062;15.446;2023-02-28T02:03:49;3.50;;;3.30;;
19278;SDS011;9773;47.062;15.446;2023-02-28T02:06:23;3.67;;;3.47;;
19278;SDS011;9773;47.062;15.446;2023-02-28T02:08:52;4.30;;;3.60;;
19278;SDS011;9773;47.062;15.446;2023-02-28T02:11:19;3.40;;;3.20;;
19278;SDS011;9773;47.062;15.446;2023-02-28T02:16:27;4.83;;;3.97;;
19278;SDS011;9773;47.062;15.446;2023-02-28T02:27:15;4.73;;;4.03;;
19278;SDS011;9773;47.062;15.446;2023-02-28T02:30:03;4.30;;;3.90;;
19278;SDS011;9773;47.062;15.446;2023-02-28T02:35:20;4.83;;;4.30;;
19278;SDS011;9773;47.062;15.446;2023-02-28T02:46:34;4.40;;;4.10;;
19278;SDS011;9773;47.062;15.446;2023-02-28T02:49:04;4.93;;;3.97;;
19278;SDS011;9773;47.062;15.446;2023-02-28T02:51:34;3.93;;;3.70;;
19278;SDS011;9773;47.062;15.446;2023-02-28T02:54:21;7.97;;;4.30;;
19278;SDS011;9773;47.062;15.446;2023-02-28T02:56:53;4.17;;;3.77;;
19278;SDS011;9773;47.062;15.446;2023-02-28T02:59:22;5.57;;;4.17;;
19278;SDS011;9773;47.062;15.446;2023-02-28T03:01:50;4.73;;;4.30;;
19278;SDS011;9773;47.062;15.446;2023-02-28T03:04:21;6.27;;;4.97;;
19278;SDS011;9773;47.062;15.446;2023-02-28T03:06:50;4.10;;;3.80;;
19278;SDS011;9773;47.062;15.446;2023-02-28T03:09:20;5.97;;;4.10;;
19278;SDS011;9773;47.062;15.446;2023-02-28T03:11:50;4.20;;;3.90;;
19278;SDS011;9773;47.062;15.446;2023-02-28T03:25:41;5.40;;;4.60;;
19278;SDS011;9773;47.062;15.446;2023-02-28T03:31:33;4.60;;;4.20;;
19278;SDS011;9773;47.062;15.446;2023-02-28T03:34:08;6.43;;;4.77;;
19278;SDS011;9773;47.062;15.446;2023-02-28T03:36:39;7.43;;;4.40;;
19278;SDS011;9773;47.062;15.446;2023-02-28T03:39:31;4.67;;;4.17;;
19278;SDS011;9773;47.062;15.446;2023-02-28T03:42:16;5.60;;;4.37;;
19278;SDS011;9773;47.062;15.446;2023-02-28T03:44:47;5.33;;;4.17;;
19278;SDS011;9773;47.062;15.446;2023-02-28T03:50:06;4.53;;;4.13;;
19278;SDS011;9773;47.062;15.446;2023-02-28T03:52:36;4.63;;;4.20;;
19278;SDS011;9773;47.062;15.446;2023-02-28T03:55:12;4.80;;;4.30;;
19278;SDS011;9773;47.062;15.446;2023-02-28T04:00:14;4.67;;;4.23;;
19278;SDS011;9773;47.062;15.446;2023-02-28T04:02:45;6.80;;;4.13;;
19278;SDS011;9773;47.062;15.446;2023-02-28T04:05:10;4.77;;;4.37;;
19278;SDS011;9773;47.062;15.446;2023-02-28T04:07:36;6.10;;;4.30;;
19278;SDS011;9773;47.062;15.446;2023-02-28T04:10:02;4.63;;;4.27;;
19278;SDS011;9773;47.062;15.446;2023-02-28T04:12:29;6.50;;;4.77;;
19278;SDS011;9773;47.062;15.446;2023-02-28T04:14:55;4.87;;;4.37;;
19278;SDS011;9773;47.062;15.446;2023-02-28T04:17:21;5.77;;;4.27;;
19278;SDS011;9773;47.062;15.446;2023-02-28T04:19:46;4.17;;;3.87;;
19278;SDS011;9773;47.062;15.446;2023-02-28T04:22:12;4.40;;;4.00;;
19278;SDS011;9773;47.062;15.446;2023-02-28T04:24:38;4.73;;;4.17;;
19278;SDS011;9773;47.062;15.446;2023-02-28T04:27:06;5.30;;;4.63;;
19278;SDS011;9773;47.062;15.446;2023-02-28T04:29:33;4.33;;;3.93;;
19278;SDS011;9773;47.062;15.446;2023-02-28T04:32:00;4.80;;;4.00;;
19278;SDS011;9773;47.062;15.446;2023-02-28T04:34:27;4.33;;;3.97;;
19278;SDS011;9773;47.062;15.446;2023-02-28T04:36:55;4.40;;;4.10;;
19278;SDS011;9773;47.062;15.446;2023-02-28T04:39:22;5.67;;;4.17;;
19278;SDS011;9773;47.062;15.446;2023-02-28T04:41:49;4.80;;;4.40;;
19278;SDS011;9773;47.062;15.446;2023-02-28T04:44:15;4.87;;;4.40;;
19278;SDS011;9773;47.062;15.446;2023-02-28T04:46:41;4.50;;;4.10;;
19278;SDS011;9773;47.062;15.446;2023-02-28T04:49:08;6.63;;;5.17;;
19278;SDS011;9773;47.062;15.446;2023-02-28T04:51:37;5.87;;;4.37;;
19278;SDS011;9773;47.062;15.446;2023-02-28T04:54:03;6.30;;;4.63;;
19278;SDS011;9773;47.062;15.446;2023-02-28T04:56:28;6.77;;;4.80;;
19278;SDS011;9773;47.062;15.446;2023-02-28T04:58:54;5.63;;;4.43;;
19278;SDS011;9773;47.062;15.446;2023-02-28T05:01:27;5.23;;;4.73;;
19278;SDS011;9773;47.062;15.446;2023-02-28T05:03:55;5.13;;;4.40;;
19278;SDS011;9773;47.062;15.446;2023-02-28T05:06:23;5.23;;;4.63;;
19278;SDS011;9773;47.062;15.446;2023-02-28T05:08:51;7.87;;;5.13;;
19278;SDS011;9773;47.062;15.446;2023-02-28T05:11:21;5.80;;;5.07;;
19278;SDS011;9773;47.062;15.446;2023-02-28T05:13:49;7.13;;;4.77;;
19278;SDS011;9773;47.062;15.446;2023-02-28T05:16:16;4.93;;;4.40;;
19278;SDS011;9773;47.062;15.446;2023-02-28T05:18:42;7.90;;;6.13;;
19278;SDS011;9773;47.062;15.446;2023-02-28T05:21:47;8.70;;;4.80;;
19278;SDS011;9773;47.062;15.446;2023-02-28T05:24:05;6.97;;;5.23;;
19278;SDS011;9773;47.062;15.446;2023-02-28T05:26:38;5.13;;;4.63;;
19278;SDS011;9773;47.062;15.446;2023-02-28T05:29:05;6.53;;;4.77;;
19278;SDS011;9773;47.062;15.446;2023-02-28T05:31:31;5.77;;;4.93;;
19278;SDS011;9773;47.062;15.446;2023-02-28T05:33:58;5.43;;;4.93;;
19278;SDS011;9773;47.062;15.446;2023-02-28T05:36:23;6.93;;;4.93;;
19278;SDS011;9773;47.062;15.446;2023-02-28T05:38:50;5.87;;;5.20;;
19278;SDS011;9773;47.062;15.446;2023-02-28T05:41:16;7.43;;;5.30;;
19278;SDS011;9773;47.062;15.446;2023-02-28T05:43:44;5.13;;;4.63;;
19278;SDS011;9773;47.062;15.446;2023-02-28T05:46:10;6.87;;;5.60;;
19278;SDS011;9773;47.062;15.446;2023-02-28T05:48:37;10.43;;;6.30;;
19278;SDS011;9773;47.062;15.446;2023-02-28T05:51:04;6.53;;;5.30;;
19278;SDS011;9773;47.062;15.446;2023-02-28T05:53:32;6.77;;;5.43;;
19278;SDS011;9773;47.062;15.446;2023-02-28T05:55:58;12.93;;;8.20;;
19278;SDS011;9773;47.062;15.446;2023-02-28T05:58:24;8.33;;;6.63;;
19278;SDS011;9773;47.062;15.446;2023-02-28T06:00:54;9.20;;;5.80;;
19278;SDS011;9773;47.062;15.446;2023-02-28T06:03:20;7.47;;;5.63;;
19278;SDS011;9773;47.062;15.446;2023-02-28T06:05:46;8.40;;;5.60;;
19278;SDS011;9773;47.062;15.446;2023-02-28T06:08:12;8.47;;;5.73;;
19278;SDS011;9773;47.062;15.446;2023-02-28T06:10:38;5.53;;;4.93;;
19278;SDS011;9773;47.062;15.446;2023-02-28T06:13:04;8.37;;;5.37;;
19278;SDS011;9773;47.062;15.446;2023-02-28T06:15:30;6.63;;;5.50;;
19278;SDS011;9773;47.062;15.446;2023-02-28T06:17:57;6.57;;;5.13;;
19278;SDS011;9773;47.062;15.446;2023-02-28T06:20:23;9.13;;;5.90;;
19278;SDS011;9773;47.062;15.446;2023-02-28T06:22:51;5.63;;;5.00;;
19278;SDS011;9773;47.062;15.446;2023-02-28T06:25:19;6.50;;;5.37;;
19278;SDS011;9773;47.062;15.446;2023-02-28T06:27:45;7.83;;;5.63;;
19278;SDS011;9773;47.062;15.446;2023-02-28T06:30:11;10.50;;;5.27;;
19278;SDS011;9773;47.062;15.446;2023-02-28T06:32:40;6.93;;;5.17;;
19278;SDS011;9773;47.062;15.446;2023-02-28T06:35:06;6.10;;;5.10;;
19278;SDS011;9773;47.062;15.446;2023-02-28T06:37:32;5.60;;;4.93;;
19278;SDS011;9773;47.062;15.446;2023-02-28T06:39:58;7.00;;;5.03;;
19278;SDS011;9773;47.062;15.446;2023-02-28T06:42:24;8.13;;;5.90;;
19278;SDS011;9773;47.062;15.446;2023-02-28T06:44:56;5.50;;;4.87;;
19278;SDS011;9773;47.062;15.446;2023-02-28T06:47:22;8.83;;;6.07;;
19278;SDS011;9773;47.062;15.446;2023-02-28T06:49:48;7.10;;;5.60;;
19278;SDS011;9773;47.062;15.446;2023-02-28T06:52:14;8.07;;;5.80;;
19278;SDS011;9773;47.062;15.446;2023-02-28T06:54:40;7.60;;;6.10;;
19278;SDS011;9773;47.062;15.446;2023-02-28T06:57:06;7.83;;;5.87;;
19278;SDS011;9773;47.062;15.446;2023-02-28T06:59:32;6.13;;;5.13;;
19278;SDS011;9773;47.062;15.446;2023-02-28T07:01:58;7.20;;;5.90;;
19278;SDS011;9773;47.062;15.446;2023-02-28T07:04:24;8.30;;;5.80;;
19278;SDS011;9773;47.062;15.446;2023-02-28T07:06:49;8.37;;;5.77;;
19278;SDS011;9773;47.062;15.446;2023-02-28T07:09:15;7.40;;;5.97;;
19278;SDS011;9773;47.062;15.446;2023-02-28T07:11:41;7.77;;;5.60;;
19278;SDS011;9773;47.062;15.446;2023-02-28T07:14:08;8.70;;;6.03;;
19278;SDS011;9773;47.062;15.446;2023-02-28T07:16:34;8.10;;;5.80;;
19278;SDS011;9773;47.062;15.446;2023-02-28T07:19:00;7.40;;;5.83;;
19278;SDS011;9773;47.062;15.446;2023-02-28T07:21:26;5.93;;;5.17;;
19278;SDS011;9773;47.062;15.446;2023-02-28T07:23:51;7.10;;;5.53;;
19278;SDS011;9773;47.062;15.446;2023-02-28T07:26:18;7.30;;;5.37;;
19278;SDS011;9773;47.062;15.446;2023-02-28T07:28:45;9.40;;;5.90;;
19278;SDS011;9773;47.062;15.446;2023-02-28T07:31:13;9.00;;;6.13;;
19278;SDS011;9773;47.062;15.446;2023-02-28T07:33:39;8.03;;;5.97;;
19278;SDS011;9773;47.062;15.446;2023-02-28T07:36:06;5.93;;;5.07;;
19278;SDS011;9773;47.062;15.446;2023-02-28T07:38:34;7.70;;;5.73;;
19278;SDS011;9773;47.062;15.446;2023-02-28T07:41:02;7.70;;;5.40;;
19278;SDS011;9773;47.062;15.446;2023-02-28T07:43:31;7.53;;;5.90;;
19278;SDS011;9773;47.062;15.446;2023-02-28T07:46:05;7.73;;;6.60;;
19278;SDS011;9773;47.062;15.446;2023-02-28T07:48:32;9.80;;;6.50;;
19278;SDS011;9773;47.062;15.446;2023-02-28T07:50:58;6.83;;;5.57;;
19278;SDS011;9773;47.062;15.446;2023-02-28T07:53:25;7.30;;;5.70;;
19278;SDS011;9773;47.062;15.446;2023-02-28T07:55:55;6.63;;;5.63;;
19278;SDS011;9773;47.062;15.446;2023-02-28T07:58:21;8.07;;;5.77;;
19278;SDS011;9773;47.062;15.446;2023-02-28T08:00:47;8.93;;;6.00;;
19278;SDS011;9773;47.062;15.446;2023-02-28T08:03:13;7.47;;;5.80;;
19278;SDS011;9773;47.062;15.446;2023-02-28T08:05:39;6.83;;;5.50;;
19278;SDS011;9773;47.062;15.446;2023-02-28T08:08:06;9.80;;;6.43;;
19278;SDS011;9773;47.062;15.446;2023-02-28T08:10:32;8.63;;;6.33;;
19278;SDS011;9773;47.062;15.446;2023-02-28T08:12:58;7.07;;;6.37;;
19278;SDS011;9773;47.062;15.446;2023-02-28T08:15:25;7.97;;;5.70;;
19278;SDS011;9773;47.062;15.446;2023-02-28T08:17:50;11.63;;;6.27;;
19278;SDS011;9773;47.062;15.446;2023-02-28T08:20:16;7.77;;;5.90;;
19278;SDS011;9773;47.062;15.446;2023-02-28T08:22:42;8.87;;;6.17;;
19278;SDS011;9773;47.062;15.446;2023-02-28T08:25:08;7.83;;;5.97;;
19278;SDS011;9773;47.062;15.446;2023-02-28T08:27:36;5.63;;;5.03;;
19278;SDS011;9773;47.062;15.446;2023-02-28T08:30:02;7.90;;;5.83;;
19278;SDS011;9773;47.062;15.446;2023-02-28T08:32:28;8.77;;;6.67;;
19278;SDS011;9773;47.062;15.446;2023-02-28T08:34:53;8.43;;;6.07;;
19278;SDS011;9773;47.062;15.446;2023-02-28T08:37:19;8.70;;;6.00;;
19278;SDS011;9773;47.062;15.446;2023-02-28T08:39:45;6.53;;;5.83;;
19278;SDS011;9773;47.062;15.446;2023-02-28T08:42:11;7.00;;;5.77;;
19278;SDS011;9773;47.062;15.446;2023-02-28T08:44:37;6.43;;;5.73;;
19278;SDS011;9773;47.062;15.446;2023-02-28T08:47:02;8.13;;;5.80;;
19278;SDS011;9773;47.062;15.446;2023-02-28T08:49:28;7.50;;;5.67;;
19278;SDS011;9773;47.062;15.446;2023-02-28T08:51:54;9.07;;;5.93;;
19278;SDS011;9773;47.062;15.446;2023-02-28T08:54:22;6.83;;;6.13;;
19278;SDS011;9773;47.062;15.446;2023-02-28T08:56:48;10.53;;;7.53;;
19278;SDS011;9773;47.062;15.446;2023-02-28T08:59:14;7.93;;;5.70;;
19278;SDS011;9773;47.062;15.446;2023-02-28T09:01:40;11.60;;;6.50;;
19278;SDS011;9773;47.062;15.446;2023-02-28T09:04:06;8.23;;;5.77;;
19278;SDS011;9773;47.062;15.446;2023-02-28T09:06:33;7.67;;;6.20;;
19278;SDS011;9773;47.062;15.446;2023-02-28T09:08:59;7.13;;;5.97;;
19278;SDS011;9773;47.062;15.446;2023-02-28T09:11:26;7.20;;;5.67;;
19278;SDS011;9773;47.062;15.446;2023-02-28T09:13:53;8.60;;;6.13;;
19278;SDS011;9773;47.062;15.446;2023-02-28T09:16:20;6.73;;;5.70;;
19278;SDS011;9773;47.062;15.446;2023-02-28T09:18:47;9.40;;;6.70;;
19278;SDS011;9773;47.062;15.446;2023-02-28T09:21:14;9.23;;;6.60;;
19278;SDS011;9773;47.062;15.446;2023-02-28T09:23:41;8.83;;;6.27;;
19278;SDS011;9773;47.062;15.446;2023-02-28T09:26:11;7.83;;;5.90;;
19278;SDS011;9773;47.062;15.446;2023-02-28T09:28:39;8.83;;;6.57;;
19278;SDS011;9773;47.062;15.446;2023-02-28T09:31:05;8.27;;;6.10;;
19278;SDS011;9773;47.062;15.446;2023-02-28T09:33:31;7.73;;;6.40;;
19278;SDS011;9773;47.062;15.446;2023-02-28T09:35:57;7.37;;;6.30;;
19278;SDS011;9773;47.062;15.446;2023-02-28T09:38:25;10.33;;;7.33;;
19278;SDS011;9773;47.062;15.446;2023-02-28T09:40:54;8.57;;;6.50;;
19278;SDS011;9773;47.062;15.446;2023-02-28T09:43:23;9.90;;;5.90;;
19278;SDS011;9773;47.062;15.446;2023-02-28T09:46:00;9.57;;;7.20;;
19278;SDS011;9773;47.062;15.446;2023-02-28T09:48:39;8.40;;;6.90;;
19278;SDS011;9773;47.062;15.446;2023-02-28T09:54:01;9.07;;;7.07;;
19278;SDS011;9773;47.062;15.446;2023-02-28T10:10:03;10.63;;;6.77;;
19278;SDS011;9773;47.062;15.446;2023-02-28T10:12:39;9.10;;;6.50;;
19278;SDS011;9773;47.062;15.446;2023-02-28T10:15:12;8.80;;;7.00;;
19278;SDS011;9773;47.062;15.446;2023-02-28T10:17:40;9.43;;;6.50;;
19278;SDS011;9773;47.062;15.446;2023-02-28T10:20:10;7.80;;;6.50;;
19278;SDS011;9773;47.062;15.446;2023-02-28T10:22:57;8.97;;;6.50;;
19278;SDS011;9773;47.062;15.446;2023-02-28T10:25:32;7.10;;;6.13;;
19278;SDS011;9773;47.062;15.446;2023-02-28T10:28:20;8.30;;;6.80;;
19278;SDS011;9773;47.062;15.446;2023-02-28T10:30:46;8.23;;;6.63;;
19278;SDS011;9773;47.062;15.446;2023-02-28T10:33:21;7.60;;;6.13;;
19278;SDS011;9773;47.062;15.446;2023-02-28T10:36:00;8.67;;;6.73;;
19278;SDS011;9773;47.062;15.446;2023-02-28T10:38:28;8.70;;;6.70;;
19278;SDS011;9773;47.062;15.446;2023-02-28T10:43:30;9.07;;;6.63;;
19278;SDS011;9773;47.062;15.446;2023-02-28T10:46:11;7.60;;;6.80;;
19278;SDS011;9773;47.062;15.446;2023-02-28T10:48:41;10.30;;;7.10;;
19278;SDS011;9773;47.062;15.446;2023-02-28T10:51:16;7.70;;;6.27;;
19278;SDS011;9773;47.062;15.446;2023-02-28T10:53:51;10.20;;;7.00;;
19278;SDS011;9773;47.062;15.446;2023-02-28T10:56:20;9.07;;;6.90;;
19278;SDS011;9773;47.062;15.446;2023-02-28T11:01:47;9.10;;;6.43;;
19278;SDS011;9773;47.062;15.446;2023-02-28T11:07:01;9.00;;;6.90;;
19278;SDS011;9773;47.062;15.446;2023-02-28T11:09:34;9.30;;;6.57;;
19278;SDS011;9773;47.062;15.446;2023-02-28T11:15:02;9.00;;;6.90;;
19278;SDS011;9773;47.062;15.446;2023-02-28T11:17:31;8.57;;;7.07;;
19278;SDS011;9773;47.062;15.446;2023-02-28T11:20:04;8.07;;;6.63;;
19278;SDS011;9773;47.062;15.446;2023-02-28T11:22:39;8.87;;;6.93;;
19278;SDS011;9773;47.062;15.446;2023-02-28T11:25:16;9.60;;;6.90;;
19278;SDS011;9773;47.062;15.446;2023-02-28T11:27:47;9.37;;;7.40;;
19278;SDS011;9773;47.062;15.446;2023-02-28T11:30:25;10.37;;;7.23;;
19278;SDS011;9773;47.062;15.446;2023-02-28T11:32:53;10.00;;;7.47;;
19278;SDS011;9773;47.062;15.446;2023-02-28T11:35:38;10.17;;;7.60;;
19278;SDS011;9773;47.062;15.446;2023-02-28T11:38:05;10.43;;;6.97;;
19278;SDS011;9773;47.062;15.446;2023-02-28T12:05:39;11.50;;;7.70;;
19278;SDS011;9773;47.062;15.446;2023-02-28T12:27:42;10.57;;;7.43;;
19278;SDS011;9773;47.062;15.446;2023-02-28T12:33:07;10.53;;;8.23;;
19278;SDS011;9773;47.062;15.446;2023-02-28T12:35:51;12.87;;;8.63;;
19278;SDS011;9773;47.062;15.446;2023-02-28T12:38:36;12.53;;;8.03;;
19278;SDS011;9773;47.062;15.446;2023-02-28T12:43:44;10.70;;;8.10;;
19278;SDS011;9773;47.062;15.446;2023-02-28T12:46:25;12.00;;;7.70;;
19278;SDS011;9773;47.062;15.446;2023-02-28T12:48:59;11.70;;;8.00;;
19278;SDS011;9773;47.062;15.446;2023-02-28T12:51:30;11.53;;;8.37;;
19278;SDS011;9773;47.062;15.446;2023-02-28T12:54:06;13.03;;;8.60;;
19278;SDS011;9773;47.062;15.446;2023-02-28T12:59:41;12.17;;;8.30;;
19278;SDS011;9773;47.062;15.446;2023-02-28T13:10:45;12.40;;;8.77;;
19278;SDS011;9773;47.062;15.446;2023-02-28T13:13:18;10.40;;;8.00;;
19278;SDS011;9773;47.062;15.446;2023-02-28T13:16:01;11.27;;;7.87;;
19278;SDS011;9773;47.062;15.446;2023-02-28T13:18:38;12.23;;;8.00;;
19278;SDS011;9773;47.062;15.446;2023-02-28T13:21:08;14.67;;;8.33;;
19278;SDS011;9773;47.062;15.446;2023-02-28T13:26:32;13.60;;;8.00;;
19278;SDS011;9773;47.062;15.446;2023-02-28T13:39:56;11.67;;;8.20;;
19278;SDS011;9773;47.062;15.446;2023-02-28T13:42:33;12.70;;;8.23;;
19278;SDS011;9773;47.062;15.446;2023-02-28T13:47:41;12.73;;;7.83;;
19278;SDS011;9773;47.062;15.446;2023-02-28T13:50:32;10.97;;;8.27;;
19278;SDS011;9773;47.062;15.446;2023-02-28T14:07:04;9.43;;;7.10;;
19278;SDS011;9773;47.062;15.446;2023-02-28T14:09:41;13.47;;;8.90;;
19278;SDS011;9773;47.062;15.446;2023-02-28T14:18:51;10.20;;;7.77;;
19278;SDS011;9773;47.062;15.446;2023-02-28T14:21:11;10.20;;;7.07;;
19278;SDS011;9773;47.062;15.446;2023-02-28T14:26:33;9.83;;;7.17;;
19278;SDS011;9773;47.062;15.446;2023-02-28T14:32:41;11.60;;;7.43;;
19278;SDS011;9773;47.062;15.446;2023-02-28T14:38:25;12.43;;;7.63;;
19278;SDS011;9773;47.062;15.446;2023-02-28T14:40:55;12.50;;;8.27;;
19278;SDS011;9773;47.062;15.446;2023-02-28T14:43:24;11.37;;;7.77;;
19278;SDS011;9773;47.062;15.446;2023-02-28T14:45:55;11.93;;;7.93;;
19278;SDS011;9773;47.062;15.446;2023-02-28T14:48:24;11.00;;;7.97;;
19278;SDS011;9773;47.062;15.446;2023-02-28T14:50:52;11.87;;;7.80;;
19278;SDS011;9773;47.062;15.446;2023-02-28T14:53:21;11.77;;;7.40;;
19278;SDS011;9773;47.062;15.446;2023-02-28T14:55:50;9.03;;;7.33;;
19278;SDS011;9773;47.062;15.446;2023-02-28T14:58:25;10.00;;;7.50;;
19278;SDS011;9773;47.062;15.446;2023-02-28T15:00:54;10.93;;;8.10;;
19278;SDS011;9773;47.062;15.446;2023-02-28T15:05:53;11.70;;;7.07;;
19278;SDS011;9773;47.062;15.446;2023-02-28T15:08:20;13.73;;;8.40;;
19278;SDS011;9773;47.062;15.446;2023-02-28T15:13:20;10.10;;;7.40;;
19278;SDS011;9773;47.062;15.446;2023-02-28T15:15:48;9.30;;;7.30;;
19278;SDS011;9773;47.062;15.446;2023-02-28T15:21:20;12.23;;;8.00;;
19278;SDS011;9773;47.062;15.446;2023-02-28T15:23:57;11.37;;;7.60;;
19278;SDS011;9773;47.062;15.446;2023-02-28T15:26:29;11.10;;;8.23;;
19278;SDS011;9773;47.062;15.446;2023-02-28T15:29:06;13.37;;;7.97;;
19278;SDS011;9773;47.062;15.446;2023-02-28T15:31:45;9.77;;;6.83;;
19278;SDS011;9773;47.062;15.446;2023-02-28T15:45:50;10.03;;;7.87;;
19278;SDS011;9773;47.062;15.446;2023-02-28T15:48:20;12.23;;;8.47;;
19278;SDS011;9773;47.062;15.446;2023-02-28T15:50:54;11.07;;;7.97;;
19278;SDS011;9773;47.062;15.446;2023-02-28T15:53:31;10.57;;;7.47;;
19278;SDS011;9773;47.062;15.446;2023-02-28T15:56:00;9.70;;;7.47;;
19278;SDS011;9773;47.062;15.446;2023-02-28T15:58:28;10.43;;;7.33;;
19278;SDS011;9773;47.062;15.446;2023-02-28T16:01:15;11.23;;;7.67;;
19278;SDS011;9773;47.062;15.446;2023-02-28T16:03:45;11.90;;;7.53;;
19278;SDS011;9773;47.062;15.446;2023-02-28T16:08:45;10.60;;;7.30;;
19278;SDS011;9773;47.062;15.446;2023-02-28T16:11:13;12.57;;;7.27;;
19278;SDS011;9773;47.062;15.446;2023-02-28T16:13:40;9.53;;;7.20;;
19278;SDS011;9773;47.062;15.446;2023-02-28T16:16:06;10.43;;;7.83;;
19278;SDS011;9773;47.062;15.446;2023-02-28T16:18:32;12.53;;;8.53;;
19278;SDS011;9773;47.062;15.446;2023-02-28T16:20:57;12.13;;;7.53;;
19278;SDS011;9773;47.062;15.446;2023-02-28T16:23:23;11.07;;;7.40;;
19278;SDS011;9773;47.062;15.446;2023-02-28T16:25:49;12.37;;;8.07;;
19278;SDS011;9773;47.062;15.446;2023-02-28T16:28:18;11.80;;;7.63;;
19278;SDS011;9773;47.062;15.446;2023-02-28T16:30:50;10.50;;;7.80;;
19278;SDS011;9773;47.062;15.446;2023-02-28T16:33:17;12.93;;;7.73;;
19278;SDS011;9773;47.062;15.446;2023-02-28T16:35:42;10.10;;;7.37;;
19278;SDS011;9773;47.062;15.446;2023-02-28T16:38:08;10.40;;;7.33;;
19278;SDS011;9773;47.062;15.446;2023-02-28T16:40:35;9.53;;;6.90;;
19278;SDS011;9773;47.062;15.446;2023-02-28T16:43:03;9.13;;;6.63;;
19278;SDS011;9773;47.062;15.446;2023-02-28T16:45:33;9.57;;;7.43;;
19278;SDS011;9773;47.062;15.446;2023-02-28T16:47:59;10.53;;;7.43;;
19278;SDS011;9773;47.062;15.446;2023-02-28T16:50:26;9.67;;;7.73;;
19278;SDS011;9773;47.062;15.446;2023-02-28T16:52:54;10.43;;;7.47;;
19278;SDS011;9773;47.062;15.446;2023-02-28T16:55:21;12.10;;;7.23;;
19278;SDS011;9773;47.062;15.446;2023-02-28T16:57:52;10.83;;;7.33;;
19278;SDS011;9773;47.062;15.446;2023-02-28T17:00:20;13.93;;;7.30;;
19278;SDS011;9773;47.062;15.446;2023-02-28T17:02:46;10.83;;;7.17;;
19278;SDS011;9773;47.062;15.446;2023-02-28T17:05:14;10.53;;;7.47;;
19278;SDS011;9773;47.062;15.446;2023-02-28T17:07:40;10.00;;;7.17;;
19278;SDS011;9773;47.062;15.446;2023-02-28T17:10:20;10.10;;;6.73;;
19278;SDS011;9773;47.062;15.446;2023-02-28T17:12:48;13.63;;;7.63;;
19278;SDS011;9773;47.062;15.446;2023-02-28T17:15:15;11.00;;;7.70;;
19278;SDS011;9773;47.062;15.446;2023-02-28T17:17:43;10.07;;;7.07;;
19278;SDS011;9773;47.062;15.446;2023-02-28T17:20:14;12.77;;;7.60;;
19278;SDS011;9773;47.062;15.446;2023-02-28T17:22:51;9.87;;;6.93;;
19278;SDS011;9773;47.062;15.446;2023-02-28T17:25:18;16.47;;;8.17;;
19278;SDS011;9773;47.062;15.446;2023-02-28T17:27:45;8.97;;;7.07;;
19278;SDS011;9773;47.062;15.446;2023-02-28T17:32:42;10.63;;;7.23;;
19278;SDS011;9773;47.062;15.446;2023-02-28T17:35:09;13.27;;;7.70;;
19278;SDS011;9773;47.062;15.446;2023-02-28T17:37:35;12.80;;;7.10;;
19278;SDS011;9773;47.062;15.446;2023-02-28T17:40:01;15.40;;;8.07;;
19278;SDS011;9773;47.062;15.446;2023-02-28T17:42:28;14.83;;;8.33;;
19278;SDS011;9773;47.062;15.446;2023-02-28T17:44:54;12.17;;;7.60;;
19278;SDS011;9773;47.062;15.446;2023-02-28T17:47:19;13.67;;;7.87;;
19278;SDS011;9773;47.062;15.446;2023-02-28T17:49:45;11.03;;;7.50;;
19278;SDS011;9773;47.062;15.446;2023-02-28T17:52:11;13.60;;;8.17;;
19278;SDS011;9773;47.062;15.446;2023-02-28T17:54:37;12.67;;;7.93;;
19278;SDS011;9773;47.062;15.446;2023-02-28T17:57:03;11.17;;;8.33;;
19278;SDS011;9773;47.062;15.446;2023-02-28T17:59:30;10.10;;;7.87;;
19278;SDS011;9773;47.062;15.446;2023-02-28T18:02:01;11.57;;;8.10;;
19278;SDS011;9773;47.062;15.446;2023-02-28T18:04:28;10.63;;;7.33;;
19278;SDS011;9773;47.062;15.446;2023-02-28T18:06:54;11.93;;;7.93;;
19278;SDS011;9773;47.062;15.446;2023-02-28T18:09:25;12.53;;;8.53;;
19278;SDS011;9773;47.062;15.446;2023-02-28T18:11:53;14.97;;;8.40;;
19278;SDS011;9773;47.062;15.446;2023-02-28T18:14:20;11.40;;;8.20;;
19278;SDS011;9773;47.062;15.446;2023-02-28T18:16:49;13.80;;;8.53;;
19278;SDS011;9773;47.062;15.446;2023-02-28T18:19:15;14.43;;;8.33;;